sensor_id;sensor_type;location;lat;lon;timestamp;P1;durP1;ratioP1;P2;durP2;ratioP2
47523;SDS011;33253;42.144;25.884;2023-09-19T00:02:01;8.43;;;4.20;;
47523;SDS011;33253;42.144;25.884;2023-09-19T00:04:32;7.83;;;4.10;;
47523;SDS011;33253;42.144;25.884;2023-09-19T00:06:58;7.55;;;4.72;;
47523;SDS011;33253;42.144;25.884;2023-09-19T00:09:24;6.30;;;4.50;;
47523;SDS011;33253;42.144;25.884;2023-09-19T00:11:53;10.20;;;4.90;;
47523;SDS011;33253;42.144;25.884;2023-09-19T00:14:19;6.30;;;4.65;;
47523;SDS011;33253;42.144;25.884;2023-09-19T00:16:44;6.60;;;4.60;;
47523;SDS011;33253;42.144;25.884;2023-09-19T00:19:12;9.80;;;4.32;;
47523;SDS011;33253;42.144;25.884;2023-09-19T00:21:38;6.90;;;4.40;;
47523;SDS011;33253;42.144;25.884;2023-09-19T00:24:06;8.38;;;5.00;;
47523;SDS011;33253;42.144;25.884;2023-09-19T00:26:33;12.90;;;5.13;;
47523;SDS011;33253;42.144;25.884;2023-09-19T00:28:59;8.45;;;4.13;;
47523;SDS011;33253;42.144;25.884;2023-09-19T00:31:30;5.95;;;4.05;;
47523;SDS011;33253;42.144;25.884;2023-09-19T00:33:56;6.75;;;4.60;;
47523;SDS011;33253;42.144;25.884;2023-09-19T00:36:29;5.50;;;4.07;;
47523;SDS011;33253;42.144;25.884;2023-09-19T00:38:54;8.20;;;4.32;;
47523;SDS011;33253;42.144;25.884;2023-09-19T00:41:19;8.55;;;4.28;;
47523;SDS011;33253;42.144;25.884;2023-09-19T00:43:46;7.05;;;5.15;;
47523;SDS011;33253;42.144;25.884;2023-09-19T00:46:12;6.72;;;4.57;;
47523;SDS011;33253;42.144;25.884;2023-09-19T00:48:42;11.35;;;5.07;;
47523;SDS011;33253;42.144;25.884;2023-09-19T00:51:11;11.70;;;5.03;;
47523;SDS011;33253;42.144;25.884;2023-09-19T00:53:39;8.25;;;4.28;;
47523;SDS011;33253;42.144;25.884;2023-09-19T00:56:04;6.45;;;4.55;;
47523;SDS011;33253;42.144;25.884;2023-09-19T00:58:33;8.77;;;5.03;;
47523;SDS011;33253;42.144;25.884;2023-09-19T01:01:00;11.85;;;6.60;;
47523;SDS011;33253;42.144;25.884;2023-09-19T01:03:27;14.27;;;8.48;;
47523;SDS011;33253;42.144;25.884;2023-09-19T01:05:52;15.32;;;9.25;;
47523;SDS011;33253;42.144;25.884;2023-09-19T01:08:18;16.88;;;10.15;;
47523;SDS011;33253;42.144;25.884;2023-09-19T01:10:46;12.55;;;8.55;;
47523;SDS011;33253;42.144;25.884;2023-09-19T01:13:31;18.52;;;9.07;;
47523;SDS011;33253;42.144;25.884;2023-09-19T01:18:55;10.88;;;8.35;;
47523;SDS011;33253;42.144;25.884;2023-09-19T01:21:50;11.05;;;8.50;;
47523;SDS011;33253;42.144;25.884;2023-09-19T01:30:06;7.85;;;5.25;;
47523;SDS011;33253;42.144;25.884;2023-09-19T01:32:38;8.70;;;5.45;;
47523;SDS011;33253;42.144;25.884;2023-09-19T01:35:06;7.50;;;5.00;;
47523;SDS011;33253;42.144;25.884;2023-09-19T01:37:32;8.07;;;5.03;;
47523;SDS011;33253;42.144;25.884;2023-09-19T01:47:59;9.73;;;4.38;;
47523;SDS011;33253;42.144;25.884;2023-09-19T01:53:32;10.27;;;4.93;;
47523;SDS011;33253;42.144;25.884;2023-09-19T01:56:00;7.78;;;5.03;;
47523;SDS011;33253;42.144;25.884;2023-09-19T02:01:10;7.72;;;5.30;;
47523;SDS011;33253;42.144;25.884;2023-09-19T02:03:41;6.13;;;4.53;;
47523;SDS011;33253;42.144;25.884;2023-09-19T02:06:13;7.47;;;4.75;;
47523;SDS011;33253;42.144;25.884;2023-09-19T02:08:40;10.38;;;5.07;;
47523;SDS011;33253;42.144;25.884;2023-09-19T02:11:06;8.48;;;4.53;;
47523;SDS011;33253;42.144;25.884;2023-09-19T02:13:32;7.68;;;4.93;;
47523;SDS011;33253;42.144;25.884;2023-09-19T02:15:57;8.98;;;5.07;;
47523;SDS011;33253;42.144;25.884;2023-09-19T02:18:23;7.18;;;4.88;;
47523;SDS011;33253;42.144;25.884;2023-09-19T02:20:52;9.38;;;4.88;;
47523;SDS011;33253;42.144;25.884;2023-09-19T02:23:38;7.28;;;5.13;;
47523;SDS011;33253;42.144;25.884;2023-09-19T02:26:04;6.35;;;4.60;;
47523;SDS011;33253;42.144;25.884;2023-09-19T02:28:30;8.50;;;5.25;;
47523;SDS011;33253;42.144;25.884;2023-09-19T02:30:57;5.85;;;4.10;;
47523;SDS011;33253;42.144;25.884;2023-09-19T02:33:23;7.45;;;4.68;;
47523;SDS011;33253;42.144;25.884;2023-09-19T02:35:49;7.75;;;4.47;;
47523;SDS011;33253;42.144;25.884;2023-09-19T02:38:22;9.27;;;5.22;;
47523;SDS011;33253;42.144;25.884;2023-09-19T02:40:50;9.75;;;6.03;;
47523;SDS011;33253;42.144;25.884;2023-09-19T02:43:16;15.50;;;9.25;;
47523;SDS011;33253;42.144;25.884;2023-09-19T02:45:42;16.60;;;9.52;;
47523;SDS011;33253;42.144;25.884;2023-09-19T02:48:07;13.95;;;9.02;;
47523;SDS011;33253;42.144;25.884;2023-09-19T02:50:33;16.08;;;9.85;;
47523;SDS011;33253;42.144;25.884;2023-09-19T02:52:59;14.40;;;8.88;;
47523;SDS011;33253;42.144;25.884;2023-09-19T02:55:24;14.73;;;9.38;;
47523;SDS011;33253;42.144;25.884;2023-09-19T02:57:53;16.80;;;8.88;;
47523;SDS011;33253;42.144;25.884;2023-09-19T03:00:22;16.23;;;9.13;;
47523;SDS011;33253;42.144;25.884;2023-09-19T03:02:48;18.00;;;9.05;;
47523;SDS011;33253;42.144;25.884;2023-09-19T03:05:21;18.30;;;8.77;;
47523;SDS011;33253;42.144;25.884;2023-09-19T03:07:48;16.17;;;7.97;;
47523;SDS011;33253;42.144;25.884;2023-09-19T03:10:16;22.40;;;9.23;;
47523;SDS011;33253;42.144;25.884;2023-09-19T03:12:42;19.23;;;9.30;;
47523;SDS011;33253;42.144;25.884;2023-09-19T03:15:08;15.40;;;8.38;;
47523;SDS011;33253;42.144;25.884;2023-09-19T03:17:34;13.52;;;8.23;;
47523;SDS011;33253;42.144;25.884;2023-09-19T03:20:01;13.50;;;7.95;;
47523;SDS011;33253;42.144;25.884;2023-09-19T03:22:27;10.98;;;7.82;;
47523;SDS011;33253;42.144;25.884;2023-09-19T03:24:52;12.57;;;7.18;;
47523;SDS011;33253;42.144;25.884;2023-09-19T03:27:18;11.60;;;6.53;;
47523;SDS011;33253;42.144;25.884;2023-09-19T03:29:45;10.93;;;6.15;;
47523;SDS011;33253;42.144;25.884;2023-09-19T03:32:11;10.82;;;6.45;;
47523;SDS011;33253;42.144;25.884;2023-09-19T03:34:37;9.73;;;6.15;;
47523;SDS011;33253;42.144;25.884;2023-09-19T03:37:08;10.93;;;5.90;;
47523;SDS011;33253;42.144;25.884;2023-09-19T03:39:34;9.57;;;6.35;;
47523;SDS011;33253;42.144;25.884;2023-09-19T03:41:59;16.40;;;6.50;;
47523;SDS011;33253;42.144;25.884;2023-09-19T03:44:25;12.10;;;7.10;;
47523;SDS011;33253;42.144;25.884;2023-09-19T03:46:51;15.48;;;7.70;;
47523;SDS011;33253;42.144;25.884;2023-09-19T03:49:16;15.93;;;6.50;;
47523;SDS011;33253;42.144;25.884;2023-09-19T03:52:01;14.32;;;7.60;;
47523;SDS011;33253;42.144;25.884;2023-09-19T03:54:27;12.70;;;7.75;;
47523;SDS011;33253;42.144;25.884;2023-09-19T03:56:53;16.67;;;7.90;;
47523;SDS011;33253;42.144;25.884;2023-09-19T03:59:19;11.90;;;8.27;;
47523;SDS011;33253;42.144;25.884;2023-09-19T04:01:46;14.77;;;8.45;;
47523;SDS011;33253;42.144;25.884;2023-09-19T04:04:12;14.55;;;8.20;;
47523;SDS011;33253;42.144;25.884;2023-09-19T04:06:39;13.13;;;8.40;;
47523;SDS011;33253;42.144;25.884;2023-09-19T04:09:04;20.42;;;8.65;;
47523;SDS011;33253;42.144;25.884;2023-09-19T04:11:33;13.85;;;9.38;;
47523;SDS011;33253;42.144;25.884;2023-09-19T04:13:58;13.48;;;8.35;;
47523;SDS011;33253;42.144;25.884;2023-09-19T04:16:24;15.18;;;8.27;;
47523;SDS011;33253;42.144;25.884;2023-09-19T04:18:50;17.98;;;8.60;;
47523;SDS011;33253;42.144;25.884;2023-09-19T04:21:15;17.50;;;8.77;;
47523;SDS011;33253;42.144;25.884;2023-09-19T04:23:41;22.27;;;9.50;;
47523;SDS011;33253;42.144;25.884;2023-09-19T04:26:07;20.83;;;9.00;;
47523;SDS011;33253;42.144;25.884;2023-09-19T04:28:33;18.23;;;9.20;;
47523;SDS011;33253;42.144;25.884;2023-09-19T04:31:18;15.98;;;9.95;;
47523;SDS011;33253;42.144;25.884;2023-09-19T04:33:44;13.95;;;8.88;;
47523;SDS011;33253;42.144;25.884;2023-09-19T04:36:10;16.15;;;9.30;;
47523;SDS011;33253;42.144;25.884;2023-09-19T04:38:35;12.55;;;8.48;;
47523;SDS011;33253;42.144;25.884;2023-09-19T04:41:00;15.00;;;7.97;;
47523;SDS011;33253;42.144;25.884;2023-09-19T04:43:26;11.00;;;7.50;;
47523;SDS011;33253;42.144;25.884;2023-09-19T04:45:52;10.90;;;7.65;;
47523;SDS011;33253;42.144;25.884;2023-09-19T04:48:21;10.43;;;7.30;;
47523;SDS011;33253;42.144;25.884;2023-09-19T04:50:49;12.85;;;7.78;;
47523;SDS011;33253;42.144;25.884;2023-09-19T04:53:15;21.63;;;8.50;;
47523;SDS011;33253;42.144;25.884;2023-09-19T04:55:40;45.63;;;10.10;;
47523;SDS011;33253;42.144;25.884;2023-09-19T04:58:05;16.77;;;7.85;;
47523;SDS011;33253;42.144;25.884;2023-09-19T05:00:31;69.35;;;11.07;;
47523;SDS011;33253;42.144;25.884;2023-09-19T05:03:00;10.60;;;6.80;;
47523;SDS011;33253;42.144;25.884;2023-09-19T05:05:25;13.65;;;7.65;;
47523;SDS011;33253;42.144;25.884;2023-09-19T05:07:51;14.05;;;7.38;;
47523;SDS011;33253;42.144;25.884;2023-09-19T05:10:19;10.10;;;7.38;;
47523;SDS011;33253;42.144;25.884;2023-09-19T05:12:45;10.60;;;6.53;;
47523;SDS011;33253;42.144;25.884;2023-09-19T05:15:12;13.65;;;7.65;;
47523;SDS011;33253;42.144;25.884;2023-09-19T05:20:15;13.60;;;8.13;;
47523;SDS011;33253;42.144;25.884;2023-09-19T05:23:09;14.68;;;7.32;;
47523;SDS011;33253;42.144;25.884;2023-09-19T05:25:37;12.88;;;6.82;;
47523;SDS011;33253;42.144;25.884;2023-09-19T05:28:08;10.73;;;6.90;;
47523;SDS011;33253;42.144;25.884;2023-09-19T05:30:36;13.80;;;7.03;;
47523;SDS011;33253;42.144;25.884;2023-09-19T05:33:03;12.38;;;7.07;;
47523;SDS011;33253;42.144;25.884;2023-09-19T05:35:30;14.90;;;7.00;;
47523;SDS011;33253;42.144;25.884;2023-09-19T05:37:57;10.95;;;6.53;;
47523;SDS011;33253;42.144;25.884;2023-09-19T05:40:42;10.15;;;7.10;;
47523;SDS011;33253;42.144;25.884;2023-09-19T05:43:10;13.55;;;7.03;;
47523;SDS011;33253;42.144;25.884;2023-09-19T05:45:35;13.23;;;6.40;;
47523;SDS011;33253;42.144;25.884;2023-09-19T05:48:09;11.07;;;6.60;;
47523;SDS011;33253;42.144;25.884;2023-09-19T05:50:40;11.27;;;6.30;;
47523;SDS011;33253;42.144;25.884;2023-09-19T05:53:07;8.95;;;6.13;;
47523;SDS011;33253;42.144;25.884;2023-09-19T05:55:33;11.82;;;6.90;;
47523;SDS011;33253;42.144;25.884;2023-09-19T05:57:58;9.30;;;5.68;;
47523;SDS011;33253;42.144;25.884;2023-09-19T06:00:24;10.10;;;5.85;;
47523;SDS011;33253;42.144;25.884;2023-09-19T06:02:56;11.15;;;6.38;;
47523;SDS011;33253;42.144;25.884;2023-09-19T06:05:26;12.85;;;6.40;;
47523;SDS011;33253;42.144;25.884;2023-09-19T06:07:53;9.95;;;6.45;;
47523;SDS011;33253;42.144;25.884;2023-09-19T06:10:19;13.05;;;5.63;;
47523;SDS011;33253;42.144;25.884;2023-09-19T06:12:48;7.50;;;5.70;;
47523;SDS011;33253;42.144;25.884;2023-09-19T06:15:14;8.90;;;5.65;;
47523;SDS011;33253;42.144;25.884;2023-09-19T06:17:50;11.75;;;5.13;;
47523;SDS011;33253;42.144;25.884;2023-09-19T06:20:17;9.02;;;5.47;;
47523;SDS011;33253;42.144;25.884;2023-09-19T06:22:43;8.32;;;5.35;;
47523;SDS011;33253;42.144;25.884;2023-09-19T06:25:09;10.70;;;5.93;;
47523;SDS011;33253;42.144;25.884;2023-09-19T06:27:37;9.95;;;5.28;;
47523;SDS011;33253;42.144;25.884;2023-09-19T06:30:09;10.27;;;5.22;;
47523;SDS011;33253;42.144;25.884;2023-09-19T06:32:36;6.82;;;4.72;;
47523;SDS011;33253;42.144;25.884;2023-09-19T06:35:02;8.27;;;4.82;;
47523;SDS011;33253;42.144;25.884;2023-09-19T06:37:28;10.93;;;4.60;;
47523;SDS011;33253;42.144;25.884;2023-09-19T06:39:54;9.27;;;4.95;;
47523;SDS011;33253;42.144;25.884;2023-09-19T06:42:19;7.80;;;4.57;;
47523;SDS011;33253;42.144;25.884;2023-09-19T06:44:45;9.63;;;5.00;;
47523;SDS011;33253;42.144;25.884;2023-09-19T06:47:11;7.85;;;4.72;;
47523;SDS011;33253;42.144;25.884;2023-09-19T06:49:36;7.97;;;4.47;;
47523;SDS011;33253;42.144;25.884;2023-09-19T06:52:02;7.63;;;5.03;;
47523;SDS011;33253;42.144;25.884;2023-09-19T06:54:28;8.80;;;5.07;;
47523;SDS011;33253;42.144;25.884;2023-09-19T06:56:59;8.07;;;5.03;;
47523;SDS011;33253;42.144;25.884;2023-09-19T06:59:24;10.23;;;4.85;;
47523;SDS011;33253;42.144;25.884;2023-09-19T07:01:50;7.78;;;4.60;;
47523;SDS011;33253;42.144;25.884;2023-09-19T07:04:16;6.03;;;4.53;;
47523;SDS011;33253;42.144;25.884;2023-09-19T07:06:44;8.93;;;4.47;;
47523;SDS011;33253;42.144;25.884;2023-09-19T07:09:11;9.32;;;4.63;;
47523;SDS011;33253;42.144;25.884;2023-09-19T07:11:37;5.72;;;4.30;;
47523;SDS011;33253;42.144;25.884;2023-09-19T07:14:03;6.95;;;4.80;;
47523;SDS011;33253;42.144;25.884;2023-09-19T07:16:28;11.25;;;4.78;;
47523;SDS011;33253;42.144;25.884;2023-09-19T07:18:54;9.20;;;4.55;;
47523;SDS011;33253;42.144;25.884;2023-09-19T07:21:21;5.80;;;4.20;;
47523;SDS011;33253;42.144;25.884;2023-09-19T07:23:47;9.95;;;4.45;;
47523;SDS011;33253;42.144;25.884;2023-09-19T07:26:13;6.75;;;4.40;;
47523;SDS011;33253;42.144;25.884;2023-09-19T07:28:38;8.35;;;4.60;;
47523;SDS011;33253;42.144;25.884;2023-09-19T07:31:04;7.53;;;4.80;;
47523;SDS011;33253;42.144;25.884;2023-09-19T07:33:32;6.47;;;4.28;;
47523;SDS011;33253;42.144;25.884;2023-09-19T07:35:57;8.82;;;4.45;;
47523;SDS011;33253;42.144;25.884;2023-09-19T07:38:23;7.32;;;4.70;;
47523;SDS011;33253;42.144;25.884;2023-09-19T07:40:49;7.80;;;4.53;;
47523;SDS011;33253;42.144;25.884;2023-09-19T07:43:15;6.60;;;3.90;;
47523;SDS011;33253;42.144;25.884;2023-09-19T07:45:41;7.63;;;4.18;;
47523;SDS011;33253;42.144;25.884;2023-09-19T07:48:06;7.50;;;4.07;;
47523;SDS011;33253;42.144;25.884;2023-09-19T07:50:39;7.35;;;4.50;;
47523;SDS011;33253;42.144;25.884;2023-09-19T07:53:05;8.38;;;4.32;;
47523;SDS011;33253;42.144;25.884;2023-09-19T07:55:31;7.03;;;3.97;;
47523;SDS011;33253;42.144;25.884;2023-09-19T07:57:58;6.53;;;4.13;;
47523;SDS011;33253;42.144;25.884;2023-09-19T08:00:24;5.97;;;4.30;;
47523;SDS011;33253;42.144;25.884;2023-09-19T08:02:49;7.95;;;3.85;;
47523;SDS011;33253;42.144;25.884;2023-09-19T08:05:17;8.35;;;3.95;;
47523;SDS011;33253;42.144;25.884;2023-09-19T08:07:43;7.20;;;4.43;;
47523;SDS011;33253;42.144;25.884;2023-09-19T08:10:16;8.07;;;3.92;;
47523;SDS011;33253;42.144;25.884;2023-09-19T08:12:44;5.47;;;3.40;;
47523;SDS011;33253;42.144;25.884;2023-09-19T08:15:15;5.10;;;3.78;;
47523;SDS011;33253;42.144;25.884;2023-09-19T08:17:42;5.93;;;4.28;;
47523;SDS011;33253;42.144;25.884;2023-09-19T08:20:08;5.93;;;4.05;;
47523;SDS011;33253;42.144;25.884;2023-09-19T08:22:51;7.78;;;4.30;;
47523;SDS011;33253;42.144;25.884;2023-09-19T08:25:19;10.60;;;4.18;;
47523;SDS011;33253;42.144;25.884;2023-09-19T08:27:45;31.27;;;5.32;;
47523;SDS011;33253;42.144;25.884;2023-09-19T08:30:15;5.95;;;3.08;;
47523;SDS011;33253;42.144;25.884;2023-09-19T08:32:41;6.55;;;3.53;;
47523;SDS011;33253;42.144;25.884;2023-09-19T08:35:08;8.00;;;3.83;;
47523;SDS011;33253;42.144;25.884;2023-09-19T08:37:34;8.60;;;4.15;;
47523;SDS011;33253;42.144;25.884;2023-09-19T08:40:00;7.15;;;3.90;;
47523;SDS011;33253;42.144;25.884;2023-09-19T08:42:25;6.88;;;4.07;;
47523;SDS011;33253;42.144;25.884;2023-09-19T08:44:52;5.60;;;3.78;;
47523;SDS011;33253;42.144;25.884;2023-09-19T08:47:26;7.85;;;3.67;;
47523;SDS011;33253;42.144;25.884;2023-09-19T08:53:10;5.15;;;3.17;;
47523;SDS011;33253;42.144;25.884;2023-09-19T08:55:40;8.07;;;3.67;;
47523;SDS011;33253;42.144;25.884;2023-09-19T08:58:08;8.02;;;3.80;;
47523;SDS011;33253;42.144;25.884;2023-09-19T09:00:35;6.38;;;3.30;;
47523;SDS011;33253;42.144;25.884;2023-09-19T09:03:02;6.45;;;3.88;;
47523;SDS011;33253;42.144;25.884;2023-09-19T09:05:29;7.38;;;3.50;;
47523;SDS011;33253;42.144;25.884;2023-09-19T09:07:57;5.50;;;3.53;;
47523;SDS011;33253;42.144;25.884;2023-09-19T09:10:24;11.88;;;4.40;;
47523;SDS011;33253;42.144;25.884;2023-09-19T09:12:51;6.45;;;3.85;;
47523;SDS011;33253;42.144;25.884;2023-09-19T09:15:18;6.32;;;3.83;;
47523;SDS011;33253;42.144;25.884;2023-09-19T09:17:46;8.35;;;4.38;;
47523;SDS011;33253;42.144;25.884;2023-09-19T09:20:16;7.63;;;3.47;;
47523;SDS011;33253;42.144;25.884;2023-09-19T09:22:53;6.90;;;3.83;;
47523;SDS011;33253;42.144;25.884;2023-09-19T09:25:20;6.50;;;4.05;;
47523;SDS011;33253;42.144;25.884;2023-09-19T09:28:01;10.18;;;3.97;;
47523;SDS011;33253;42.144;25.884;2023-09-19T09:30:33;5.90;;;3.83;;
47523;SDS011;33253;42.144;25.884;2023-09-19T09:33:10;9.43;;;4.10;;
47523;SDS011;33253;42.144;25.884;2023-09-19T09:35:36;12.15;;;4.45;;
47523;SDS011;33253;42.144;25.884;2023-09-19T09:38:12;7.53;;;3.63;;
47523;SDS011;33253;42.144;25.884;2023-09-19T09:40:48;15.18;;;4.05;;
47523;SDS011;33253;42.144;25.884;2023-09-19T09:48:59;20.45;;;4.80;;
47523;SDS011;33253;42.144;25.884;2023-09-19T09:51:48;14.25;;;4.30;;
47523;SDS011;33253;42.144;25.884;2023-09-19T09:54:25;8.25;;;3.97;;
47523;SDS011;33253;42.144;25.884;2023-09-19T09:57:10;7.50;;;3.65;;
47523;SDS011;33253;42.144;25.884;2023-09-19T09:59:59;8.45;;;3.65;;
47523;SDS011;33253;42.144;25.884;2023-09-19T10:02:37;7.10;;;3.50;;
47523;SDS011;33253;42.144;25.884;2023-09-19T10:05:14;19.98;;;4.65;;
47523;SDS011;33253;42.144;25.884;2023-09-19T10:07:54;8.02;;;4.22;;
47523;SDS011;33253;42.144;25.884;2023-09-19T10:10:36;6.93;;;3.78;;
47523;SDS011;33253;42.144;25.884;2023-09-19T10:13:12;14.07;;;4.68;;
47523;SDS011;33253;42.144;25.884;2023-09-19T10:15:43;7.72;;;3.70;;
47523;SDS011;33253;42.144;25.884;2023-09-19T10:18:17;8.32;;;3.42;;
47523;SDS011;33253;42.144;25.884;2023-09-19T10:20:46;7.75;;;3.88;;
47523;SDS011;33253;42.144;25.884;2023-09-19T10:23:13;6.07;;;3.58;;
47523;SDS011;33253;42.144;25.884;2023-09-19T10:25:41;7.82;;;3.47;;
47523;SDS011;33253;42.144;25.884;2023-09-19T10:28:09;5.47;;;3.60;;
47523;SDS011;33253;42.144;25.884;2023-09-19T10:33:11;11.98;;;4.30;;
47523;SDS011;33253;42.144;25.884;2023-09-19T10:35:38;9.35;;;4.00;;
47523;SDS011;33253;42.144;25.884;2023-09-19T10:38:05;6.82;;;4.05;;
47523;SDS011;33253;42.144;25.884;2023-09-19T10:40:32;6.97;;;3.88;;
47523;SDS011;33253;42.144;25.884;2023-09-19T10:43:04;5.40;;;3.53;;
47523;SDS011;33253;42.144;25.884;2023-09-19T10:48:00;6.43;;;4.03;;
47523;SDS011;33253;42.144;25.884;2023-09-19T10:53:17;15.68;;;4.47;;
47523;SDS011;33253;42.144;25.884;2023-09-19T10:55:58;7.13;;;3.83;;
47523;SDS011;33253;42.144;25.884;2023-09-19T10:58:28;10.15;;;4.00;;
47523;SDS011;33253;42.144;25.884;2023-09-19T11:01:02;6.20;;;3.65;;
47523;SDS011;33253;42.144;25.884;2023-09-19T11:03:37;6.88;;;3.60;;
47523;SDS011;33253;42.144;25.884;2023-09-19T11:06:12;15.32;;;4.18;;
47523;SDS011;33253;42.144;25.884;2023-09-19T11:08:57;7.60;;;4.05;;
47523;SDS011;33253;42.144;25.884;2023-09-19T11:14:28;8.82;;;4.10;;
47523;SDS011;33253;42.144;25.884;2023-09-19T11:30:40;6.25;;;3.60;;
47523;SDS011;33253;42.144;25.884;2023-09-19T11:33:22;7.90;;;3.60;;
47523;SDS011;33253;42.144;25.884;2023-09-19T11:41:37;25.25;;;5.30;;
47523;SDS011;33253;42.144;25.884;2023-09-19T11:46:38;8.10;;;3.80;;
47523;SDS011;33253;42.144;25.884;2023-09-19T11:49:16;5.68;;;3.50;;
47523;SDS011;33253;42.144;25.884;2023-09-19T11:51:48;9.07;;;4.00;;
47523;SDS011;33253;42.144;25.884;2023-09-19T11:54:19;6.53;;;3.22;;
47523;SDS011;33253;42.144;25.884;2023-09-19T11:56:48;12.25;;;3.70;;
47523;SDS011;33253;42.144;25.884;2023-09-19T11:59:22;7.63;;;3.47;;
47523;SDS011;33253;42.144;25.884;2023-09-19T12:01:54;7.82;;;3.65;;
47523;SDS011;33253;42.144;25.884;2023-09-19T12:04:35;6.93;;;3.67;;
47523;SDS011;33253;42.144;25.884;2023-09-19T12:09:44;7.53;;;3.95;;
47523;SDS011;33253;42.144;25.884;2023-09-19T12:12:18;8.82;;;3.33;;
47523;SDS011;33253;42.144;25.884;2023-09-19T12:14:55;7.43;;;3.60;;
47523;SDS011;33253;42.144;25.884;2023-09-19T12:17:23;12.27;;;4.00;;
47523;SDS011;33253;42.144;25.884;2023-09-19T12:19:50;8.57;;;3.20;;
47523;SDS011;33253;42.144;25.884;2023-09-19T12:22:17;12.18;;;3.50;;
47523;SDS011;33253;42.144;25.884;2023-09-19T12:24:44;8.15;;;3.80;;
47523;SDS011;33253;42.144;25.884;2023-09-19T12:27:10;7.60;;;3.55;;
47523;SDS011;33253;42.144;25.884;2023-09-19T12:29:43;7.30;;;3.45;;
47523;SDS011;33253;42.144;25.884;2023-09-19T12:32:10;7.00;;;3.13;;
47523;SDS011;33253;42.144;25.884;2023-09-19T12:34:36;6.00;;;3.20;;
47523;SDS011;33253;42.144;25.884;2023-09-19T12:37:16;8.13;;;3.40;;
47523;SDS011;33253;42.144;25.884;2023-09-19T12:39:51;6.47;;;3.60;;
47523;SDS011;33253;42.144;25.884;2023-09-19T12:42:24;6.88;;;3.10;;
47523;SDS011;33253;42.144;25.884;2023-09-19T12:44:57;14.75;;;3.88;;
47523;SDS011;33253;42.144;25.884;2023-09-19T12:47:26;15.10;;;3.58;;
47523;SDS011;33253;42.144;25.884;2023-09-19T12:50:13;7.88;;;3.67;;
47523;SDS011;33253;42.144;25.884;2023-09-19T12:52:43;6.50;;;3.50;;
47523;SDS011;33253;42.144;25.884;2023-09-19T12:55:25;21.33;;;4.95;;
47523;SDS011;33253;42.144;25.884;2023-09-19T12:58:11;25.90;;;4.25;;
47523;SDS011;33253;42.144;25.884;2023-09-19T13:00:41;6.75;;;2.95;;
47523;SDS011;33253;42.144;25.884;2023-09-19T13:05:51;9.93;;;3.53;;
47523;SDS011;33253;42.144;25.884;2023-09-19T13:08:32;9.60;;;3.42;;
47523;SDS011;33253;42.144;25.884;2023-09-19T13:11:03;7.20;;;3.22;;
47523;SDS011;33253;42.144;25.884;2023-09-19T13:13:40;6.47;;;3.55;;
47523;SDS011;33253;42.144;25.884;2023-09-19T13:16:10;7.55;;;3.92;;
47523;SDS011;33253;42.144;25.884;2023-09-19T13:18:58;9.13;;;3.75;;
47523;SDS011;33253;42.144;25.884;2023-09-19T13:21:27;8.38;;;3.50;;
47523;SDS011;33253;42.144;25.884;2023-09-19T13:23:55;8.98;;;3.63;;
47523;SDS011;33253;42.144;25.884;2023-09-19T13:26:26;5.40;;;3.67;;
47523;SDS011;33253;42.144;25.884;2023-09-19T13:28:53;7.82;;;3.38;;
47523;SDS011;33253;42.144;25.884;2023-09-19T13:31:21;4.95;;;3.10;;
47523;SDS011;33253;42.144;25.884;2023-09-19T13:33:48;19.60;;;4.55;;
47523;SDS011;33253;42.144;25.884;2023-09-19T13:36:15;12.55;;;4.25;;
47523;SDS011;33253;42.144;25.884;2023-09-19T13:38:41;21.33;;;4.75;;
47523;SDS011;33253;42.144;25.884;2023-09-19T13:41:11;10.07;;;3.90;;
47523;SDS011;33253;42.144;25.884;2023-09-19T13:43:37;22.38;;;4.95;;
47523;SDS011;33253;42.144;25.884;2023-09-19T13:46:03;11.05;;;3.67;;
47523;SDS011;33253;42.144;25.884;2023-09-19T13:48:29;17.33;;;4.25;;
47523;SDS011;33253;42.144;25.884;2023-09-19T13:50:56;42.53;;;4.82;;
47523;SDS011;33253;42.144;25.884;2023-09-19T13:53:23;14.82;;;3.95;;
47523;SDS011;33253;42.144;25.884;2023-09-19T13:55:49;14.10;;;3.95;;
47523;SDS011;33253;42.144;25.884;2023-09-19T13:58:15;7.90;;;3.58;;
47523;SDS011;33253;42.144;25.884;2023-09-19T14:00:40;14.35;;;3.78;;
47523;SDS011;33253;42.144;25.884;2023-09-19T14:03:06;15.07;;;4.18;;
47523;SDS011;33253;42.144;25.884;2023-09-19T14:05:32;7.22;;;3.63;;
47523;SDS011;33253;42.144;25.884;2023-09-19T14:07:57;5.15;;;3.45;;
47523;SDS011;33253;42.144;25.884;2023-09-19T14:10:24;28.15;;;4.78;;
47523;SDS011;33253;42.144;25.884;2023-09-19T14:12:55;7.18;;;3.38;;
47523;SDS011;33253;42.144;25.884;2023-09-19T14:15:20;29.33;;;5.07;;
47523;SDS011;33253;42.144;25.884;2023-09-19T14:17:54;9.18;;;3.70;;
47523;SDS011;33253;42.144;25.884;2023-09-19T14:20:21;6.18;;;3.53;;
47523;SDS011;33253;42.144;25.884;2023-09-19T14:22:47;7.40;;;3.65;;
47523;SDS011;33253;42.144;25.884;2023-09-19T14:25:13;6.05;;;3.58;;
47523;SDS011;33253;42.144;25.884;2023-09-19T14:27:38;5.18;;;3.90;;
47523;SDS011;33253;42.144;25.884;2023-09-19T14:30:04;11.35;;;3.80;;
47523;SDS011;33253;42.144;25.884;2023-09-19T14:32:31;5.25;;;3.60;;
47523;SDS011;33253;42.144;25.884;2023-09-19T14:34:56;6.50;;;3.63;;
47523;SDS011;33253;42.144;25.884;2023-09-19T14:37:22;8.00;;;3.80;;
47523;SDS011;33253;42.144;25.884;2023-09-19T14:39:47;17.80;;;3.97;;
47523;SDS011;33253;42.144;25.884;2023-09-19T14:42:13;10.63;;;3.70;;
47523;SDS011;33253;42.144;25.884;2023-09-19T14:44:42;55.53;;;7.05;;
47523;SDS011;33253;42.144;25.884;2023-09-19T14:47:08;10.75;;;3.60;;
47523;SDS011;33253;42.144;25.884;2023-09-19T14:49:34;9.32;;;3.30;;
47523;SDS011;33253;42.144;25.884;2023-09-19T14:52:00;7.22;;;3.33;;
47523;SDS011;33253;42.144;25.884;2023-09-19T14:54:29;35.97;;;5.20;;
47523;SDS011;33253;42.144;25.884;2023-09-19T14:56:55;10.45;;;3.42;;
47523;SDS011;33253;42.144;25.884;2023-09-19T14:59:30;10.52;;;3.83;;
47523;SDS011;33253;42.144;25.884;2023-09-19T15:01:57;25.88;;;4.75;;
47523;SDS011;33253;42.144;25.884;2023-09-19T15:04:23;73.00;;;7.75;;
47523;SDS011;33253;42.144;25.884;2023-09-19T15:06:49;12.65;;;3.80;;
47523;SDS011;33253;42.144;25.884;2023-09-19T15:09:14;7.28;;;3.30;;
47523;SDS011;33253;42.144;25.884;2023-09-19T15:11:40;7.40;;;3.40;;
47523;SDS011;33253;42.144;25.884;2023-09-19T15:14:06;5.40;;;3.20;;
47523;SDS011;33253;42.144;25.884;2023-09-19T15:16:31;12.65;;;4.10;;
47523;SDS011;33253;42.144;25.884;2023-09-19T15:18:57;8.20;;;3.70;;
47523;SDS011;33253;42.144;25.884;2023-09-19T15:21:23;7.70;;;3.40;;
47523;SDS011;33253;42.144;25.884;2023-09-19T15:23:49;22.50;;;4.80;;
47523;SDS011;33253;42.144;25.884;2023-09-19T15:26:15;18.95;;;4.07;;
47523;SDS011;33253;42.144;25.884;2023-09-19T15:28:45;7.90;;;3.25;;
47523;SDS011;33253;42.144;25.884;2023-09-19T15:31:11;9.43;;;3.50;;
47523;SDS011;33253;42.144;25.884;2023-09-19T15:33:38;18.58;;;3.63;;
47523;SDS011;33253;42.144;25.884;2023-09-19T15:36:07;9.85;;;3.50;;
47523;SDS011;33253;42.144;25.884;2023-09-19T15:41:21;47.92;;;6.25;;
47523;SDS011;33253;42.144;25.884;2023-09-19T15:43:47;13.27;;;3.75;;
47523;SDS011;33253;42.144;25.884;2023-09-19T15:46:13;122.40;;;11.48;;
47523;SDS011;33253;42.144;25.884;2023-09-19T15:48:40;9.80;;;3.30;;
47523;SDS011;33253;42.144;25.884;2023-09-19T15:51:05;8.65;;;3.40;;
47523;SDS011;33253;42.144;25.884;2023-09-19T15:56:25;8.93;;;3.55;;